Weather observations for the past three days for
Fullerton, Fullerton Municipal Airport
Metric (Imperial)
Date Time (pdt) Wind (kph) Vis. (km) Weather Sky Cond. Temperature (ºC) Relative Humidity Wind Chill (°C) Heat Index (°C) Pressure Precipitation (cm)
Air Dwpt 6 hour altimeter (cm) sea level (mb) 1 hr 3 hr 6 hr
Max. Min.
08 16:53 S 13 16.09 Fair CLR 22.8 13.9 24.4 18.3 57% 75.97 1012.5
08 15:53 SW 11 16.09 Fair CLR 23.9 14.4 55% 25 76 1013.0
08 14:53 SW 13 16.09 Fair CLR 23.9 14.4 55% 25 76.05 1013.7
08 13:53 Vrbl 7 16.09 Fair CLR 22.2 14.4 61% 76.1 1014.2
08 12:53 Vrbl 7 16.09 Fair CLR 21.7 14.4 63% 76.12 1014.8
08 11:53 Vrbl 6 16.09 Overcast OVC021 20.6 13.9 66% 76.17 1015.6
08 10:53 Calm 16.09 Overcast OVC017 18.9 13.9 18.9 16.7 73% 76.23 1016.0
08 09:53 Calm 16.09 Overcast OVC015 17.8 13.9 78% 76.23 1016.2
08 08:53 Calm 16.09 Overcast OVC013 17.2 13.9 81% 76.23 1016.0
08 07:53 E 7 16.09 Overcast OVC013 16.7 13.9 84% 76.23 1016.2
08 06:53 Calm 16.09 Overcast OVC012 16.7 13.9 84% 76.2 1015.9
08 05:53 SE 7 16.09 Overcast OVC012 16.7 13.9 84% 76.17 1015.5
08 04:53 S 9 16.09 Overcast OVC013 16.7 13.9 16.7 16.1 84% 76.15 1015.2
08 03:53 Calm 16.09 Overcast OVC012 16.7 13.9 84% 76.15 1015.1
08 02:53 Calm 16.09 Overcast OVC012 16.7 13.9 84% 76.15 1015.2
08 01:53 S 6 16.09 Overcast OVC012 16.7 13.3 80% 76.17 1015.4
08 00:53 SE 6 16.09 Overcast OVC012 16.1 13.9 87% 76.23 1015.9
07 23:53 S 7 16.09 Overcast OVC011 16.1 13.9 87% 76.23 1016.0
07 22:53 S 9 16.09 Fair CLR 16.1 13.9 23.3 16.1 87% 76.2 1015.8
07 21:53 SE 11 16.09 Fair CLR 16.7 13.9 84% 76.2 1015.6
07 20:53 S 9 16.09 Fair CLR 17.2 13.9 81% 76.12 1014.9
07 19:53 S 11 16.09 Fair CLR 17.8 13.9 78% 76.07 1014.0
07 18:53 S 13 16.09 Fair CLR 20 13.3 65% 76.02 1013.3
07 17:53 S 13 16.09 Fair CLR 22.2 13.3 57% 76 1013.1
07 16:53 S 15 16.09 Fair CLR 23.3 13.3 24.4 21.7 54% 76 1013.1
07 15:53 S 15 16.09 Fair CLR 23.9 13.3 52% 25 76.02 1013.3
07 14:53 S 15 16.09 Fair CLR 23.9 13.3 52% 25 76.05 1013.9
07 13:53 S 13 16.09 Fair CLR 23.3 13.3 54% 76.1 1014.3
07 12:53 SW 11 16.09 Fair CLR 23.3 13.3 54% 76.12 1014.9
07 11:53 S 9 16.09 Fair CLR 22.8 13.3 55% 76.17 1015.4
07 10:53 Vrbl 6 16.09 Fair CLR 22.2 12.8 22.2 13.9 55% 76.2 1015.8
07 09:53 Calm 16.09 Fair CLR 20.6 12.2 59% 76.23 1016.0
07 08:53 Calm 16.09 Fair CLR 18.3 12.8 70% 76.25 1016.3
07 07:53 Calm 16.09 Fair CLR 16.1 12.2 78% 76.25 1016.5
07 06:53 Calm 16.09 Fair CLR 15 10.6 75% 76.23 1016.0
07 05:53 Calm 16.09 Fair CLR 14.4 11.1 81% 76.17 1015.5
07 04:53 Calm 16.09 Fair CLR 13.9 11.7 16.7 13.9 87% 76.17 1015.6
07 03:53 Calm 16.09 Fair CLR 14.4 11.7 84% 76.2 1015.7
07 02:53 Calm 16.09 Fair CLR 15 12.2 83% 76.23 1015.9
07 01:53 Calm 16.09 Fair CLR 15.6 12.2 80% 76.25 1016.5
07 00:53 W 6 16.09 Fair CLR 16.1 12.2 78% 76.28 1016.8
06 23:53 Calm 16.09 Fair CLR 16.7 12.2 75% 76.3 1017.0
06 22:53 W 7 16.09 Fair CLR 16.7 11.7 23.3 16.7 73% 76.3 1017.2
06 21:53 W 7 16.09 Fair CLR 17.2 11.7 70% 76.3 1017.0
06 20:53 W 7 16.09 Fair CLR 17.8 10.6 63% 76.25 1016.6
06 19:53 W 9 16.09 Fair CLR 18.9 10.6 59% 76.23 1016.0
06 18:53 W 13 16.09 Fair CLR 20.6 10.6 53% 76.17 1015.4
06 17:53 Vrbl 9 16.09 Fair CLR 22.2 11.1 50% 76.15 1014.9
06 16:53 Vrbl 7 16.09 Fair CLR 23.3 11.1 23.9 20 46% 76.12 1014.8
06 15:53 S 15 16.09 Fair CLR 23.3 10.6 45% 76.15 1015.1
06 14:53 S 13 16.09 Fair CLR 22.8 10 44% 76.2 1015.8
06 13:53 Calm 16.09 Fair CLR 23.3 10.6 45% 76.25 1016.3
06 12:53 S 11 16.09 Fair CLR 21.7 10.6 49% 76.3 1017.1
06 11:53 SW 11 16.09 A Few Clouds FEW039 21.7 10.6 49% 76.33 1017.6
06 10:53 SE 6 16.09 Fair CLR 20 8.9 20 12.8 49% 76.38 1018.0
06 09:53 Calm 16.09 Fair CLR 18.9 10 56% 76.38 1018.1
06 08:53 NE 9 16.09 A Few Clouds FEW021 17.2 10.6 65% 76.38 1018.2
06 07:53 E 9 16.09 Fair CLR 15.6 10.6 72% 76.38 1018.3
06 06:53 E 9 16.09 Fair CLR 13.3 10.6 84% 76.38 1018.0
06 05:53 E 7 16.09 Fair CLR 12.8 10.6 87% 76.33 1017.4
06 04:53 E 7 16.09 Fair CLR 13.3 10.6 15.6 13.3 84% 76.3 1017.1
06 03:53 E 7 16.09 Fair CLR 13.3 10.6 84% 76.3 1016.9
06 02:53 E 6 16.09 Fair CLR 13.9 10.6 81% 76.3 1017.0
06 01:53 E 6 16.09 Fair CLR 14.4 11.7 84% 76.3 1017.2
06 00:53 E 6 16.09 Fair CLR 15 11.7 81% 76.33 1017.5
05 23:53 SE 7 16.09 Fair CLR 15.6 11.1 75% 76.3 1017.2
05 22:53 SE 7 16.09 Fair CLR 15.6 11.1 20 15.6 75% 76.28 1016.8
05 21:53 Calm 16.09 Fair CLR 16.1 10.6 70% 76.23 1016.2
05 20:53 W 6 16.09 Partly Cloudy SCT055 17.2 7.2 52% 76.17 1015.4
05 19:53 W 7 16.09 Mostly Cloudy BKN055 BKN070 17.8 6.7 48% 76.12 1014.6
05 18:53 W 15 16.09 Fair CLR 18.9 6.1 43% 76.07 1013.9
05 17:53 Vrbl 7 16.09 Fair CLR 19.4 6.7 44% 76.05 1013.7
Date Time (pdt) Wind (kph) Vis. (km) Weather Sky Cond. Air Dwpt Max. Min. Relative Humidity Wind Chill (°C) Heat Index (°C) altimeter (cm) sea level (mb) 1 hr 3 hr 6 hr
6 hour
Temperature (ºC) Pressure Precipitation (cm)